createdAt,value
2023-08-11T00:01:13.486Z,5.50
2023-08-11T00:03:41.606Z,6.30
2023-08-11T00:06:09.814Z,6.00
2023-08-11T00:08:40.039Z,6.10
2023-08-11T00:11:08.214Z,5.60
2023-08-11T00:13:36.790Z,4.80
2023-08-11T00:16:06.245Z,14.10
2023-08-11T00:18:34.474Z,23.20
2023-08-11T00:21:04.329Z,20.70
2023-08-11T00:23:32.652Z,19.60
2023-08-11T00:26:00.673Z,7.20
2023-08-11T00:28:29.002Z,6.70
2023-08-11T00:30:59.654Z,6.30
2023-08-11T00:33:27.915Z,7.80
2023-08-11T00:35:56.532Z,6.50
2023-08-11T00:38:27.421Z,6.70
2023-08-11T00:40:55.600Z,5.60
2023-08-11T00:43:23.614Z,8.30
2023-08-11T00:45:51.769Z,12.90
2023-08-11T00:48:20.581Z,13.00
2023-08-11T00:50:49.117Z,13.90
2023-08-11T00:53:17.286Z,12.20
2023-08-11T00:55:45.557Z,8.50
2023-08-11T00:58:13.887Z,8.00
2023-08-11T01:00:42.243Z,10.20
2023-08-11T01:03:10.497Z,13.60
2023-08-11T01:05:46.440Z,10.60
2023-08-11T01:08:45.192Z,7.30
2023-08-11T01:11:41.671Z,4.70
2023-08-11T01:14:28.906Z,5.80
2023-08-11T01:16:59.532Z,4.60
2023-08-11T01:19:36.234Z,5.40
2023-08-11T01:22:11.896Z,5.20
2023-08-11T01:24:41.238Z,4.70
2023-08-11T01:27:09.678Z,4.70
2023-08-11T01:29:38.450Z,4.10
2023-08-11T01:32:07.249Z,5.80
2023-08-11T01:34:36.536Z,4.30
2023-08-11T01:37:05.805Z,4.80
2023-08-11T01:39:34.480Z,5.20
2023-08-11T01:42:02.938Z,4.40
2023-08-11T01:44:31.596Z,4.20
2023-08-11T01:46:59.936Z,3.60
2023-08-11T01:49:28.670Z,4.90
2023-08-11T01:51:58.249Z,3.90
2023-08-11T01:54:26.535Z,4.40
2023-08-11T01:56:55.908Z,3.80
2023-08-11T01:59:23.996Z,3.70
2023-08-11T02:01:52.152Z,5.90
2023-08-11T02:04:22.358Z,4.60
2023-08-11T02:06:50.536Z,5.00
2023-08-11T02:09:18.618Z,4.70
2023-08-11T02:11:46.780Z,7.40
2023-08-11T02:14:15.501Z,6.30
2023-08-11T02:16:43.645Z,4.40
2023-08-11T02:19:12.114Z,3.70
2023-08-11T02:21:40.586Z,4.80
2023-08-11T02:24:08.697Z,4.80
2023-08-11T02:26:37.156Z,4.90
2023-08-11T02:29:05.462Z,4.10
2023-08-11T02:31:34.498Z,4.70
2023-08-11T02:34:02.783Z,4.90
2023-08-11T02:36:30.863Z,5.10
2023-08-11T02:38:58.973Z,5.70
2023-08-11T02:41:27.414Z,4.20
2023-08-11T02:43:55.579Z,4.30
2023-08-11T02:46:24.174Z,4.40
2023-08-11T02:48:52.337Z,4.70
2023-08-11T02:51:20.609Z,5.80
2023-08-11T02:53:48.778Z,5.00
2023-08-11T02:56:17.569Z,5.40
2023-08-11T02:58:45.938Z,6.40
2023-08-11T03:01:15.722Z,6.40
2023-08-11T03:03:44.260Z,6.10
2023-08-11T03:06:12.621Z,5.90
2023-08-11T03:08:41.089Z,6.40
2023-08-11T03:11:09.879Z,5.20
2023-08-11T03:13:38.057Z,7.00
2023-08-11T03:16:07.070Z,4.60
2023-08-11T03:18:36.799Z,5.00
2023-08-11T03:21:18.541Z,4.90
2023-08-11T03:23:49.186Z,5.50
2023-08-11T03:26:17.658Z,5.20
2023-08-11T03:28:46.034Z,4.70
2023-08-11T03:31:15.244Z,5.80
2023-08-11T03:33:45.246Z,4.90
2023-08-11T03:36:15.741Z,7.60
2023-08-11T03:38:45.241Z,8.60
2023-08-11T03:41:13.359Z,5.80
2023-08-11T03:43:41.827Z,4.80
2023-08-11T03:46:10.352Z,6.30
2023-08-11T03:48:39.510Z,7.20
2023-08-11T03:51:08.405Z,6.10
2023-08-11T03:53:37.841Z,4.50
2023-08-11T03:56:09.095Z,7.40
2023-08-11T03:58:41.309Z,7.10
2023-08-11T04:01:09.698Z,6.80
2023-08-11T04:03:38.084Z,8.20
2023-08-11T04:06:06.282Z,8.80
2023-08-11T04:08:34.722Z,7.40
2023-08-11T04:11:02.715Z,7.00
2023-08-11T04:13:30.785Z,8.30
2023-08-11T04:16:00.671Z,7.80
2023-08-11T04:18:28.787Z,9.40
2023-08-11T04:20:57.434Z,7.50
2023-08-11T04:23:25.913Z,8.40
2023-08-11T04:25:55.169Z,7.80
2023-08-11T04:28:23.531Z,9.40
2023-08-11T04:30:51.855Z,6.40
2023-08-11T04:33:20.292Z,10.30
2023-08-11T04:35:51.053Z,7.70
2023-08-11T04:38:19.470Z,6.90
2023-08-11T04:40:51.858Z,8.60
2023-08-11T04:43:21.037Z,8.20
2023-08-11T04:45:50.520Z,9.60
2023-08-11T04:48:19.103Z,8.20
2023-08-11T04:50:54.576Z,7.10
2023-08-11T04:53:22.953Z,7.30
2023-08-11T04:55:52.588Z,7.80
2023-08-11T04:58:21.734Z,7.90
2023-08-11T05:00:50.208Z,7.00
2023-08-11T05:03:20.077Z,6.30
2023-08-11T05:05:48.512Z,7.00
2023-08-11T05:08:16.877Z,8.30
2023-08-11T05:10:45.053Z,8.50
2023-08-11T05:13:14.357Z,8.90
2023-08-11T05:15:42.536Z,5.80
2023-08-11T05:18:11.602Z,7.20
2023-08-11T05:20:39.883Z,6.40
2023-08-11T05:23:07.962Z,6.60
2023-08-11T05:25:36.038Z,6.60
2023-08-11T05:28:04.660Z,6.40
2023-08-11T05:30:32.898Z,5.90
2023-08-11T05:33:01.133Z,6.30
2023-08-11T05:35:30.583Z,7.50
2023-08-11T05:37:58.890Z,7.00
2023-08-11T05:40:27.014Z,9.60
2023-08-11T05:42:55.192Z,8.30
2023-08-11T05:45:23.273Z,8.40
2023-08-11T05:47:51.502Z,7.80
2023-08-11T05:50:19.809Z,8.90
2023-08-11T05:52:47.988Z,8.60
2023-08-11T05:55:16.489Z,10.30
2023-08-11T05:57:44.740Z,8.80
2023-08-11T06:00:17.476Z,9.90
2023-08-11T06:02:48.801Z,11.90
2023-08-11T06:05:17.154Z,14.50
2023-08-11T06:07:55.691Z,12.90
2023-08-11T06:10:28.515Z,12.00
2023-08-11T06:12:56.718Z,15.30
2023-08-11T06:15:24.997Z,13.30
2023-08-11T06:17:53.189Z,11.90
2023-08-11T06:20:34.489Z,9.30
2023-08-11T06:23:09.740Z,7.20
2023-08-11T06:25:38.423Z,6.30
2023-08-11T06:28:06.844Z,6.80
2023-08-11T06:30:35.339Z,5.70
2023-08-11T06:33:03.923Z,6.60
2023-08-11T06:35:32.503Z,6.00
2023-08-11T06:38:01.164Z,9.70
2023-08-11T06:40:31.034Z,7.10
2023-08-11T06:43:00.444Z,7.50
2023-08-11T06:45:28.900Z,6.20
2023-08-11T06:47:57.676Z,7.50
2023-08-11T06:50:26.477Z,7.20
2023-08-11T06:52:55.843Z,9.40
2023-08-11T06:55:25.867Z,9.10
2023-08-11T06:57:54.556Z,9.50
2023-08-11T07:00:23.346Z,9.60
2023-08-11T07:02:51.915Z,5.90
2023-08-11T07:05:20.302Z,5.20
2023-08-11T07:07:48.641Z,3.80
2023-08-11T07:10:16.950Z,4.50
2023-08-11T07:12:45.118Z,4.70
2023-08-11T07:15:13.296Z,6.20
2023-08-11T07:17:41.438Z,5.00
2023-08-11T07:20:09.992Z,5.00
2023-08-11T07:22:38.330Z,4.40
2023-08-11T07:25:06.710Z,5.20
2023-08-11T07:27:34.880Z,4.50
2023-08-11T07:30:03.359Z,5.40
2023-08-11T07:32:31.548Z,4.40
2023-08-11T07:34:59.908Z,4.90
2023-08-11T07:37:28.083Z,3.30
2023-08-11T07:39:56.212Z,6.00
2023-08-11T07:42:24.598Z,3.80
2023-08-11T07:44:52.950Z,3.20
2023-08-11T07:47:21.173Z,3.70
2023-08-11T07:49:49.321Z,5.20
2023-08-11T07:52:18.958Z,4.50
2023-08-11T07:54:47.183Z,4.00
2023-08-11T07:57:17.555Z,4.90
2023-08-11T07:59:46.913Z,5.50
2023-08-11T08:02:16.785Z,6.10
2023-08-11T08:04:45.352Z,4.00
2023-08-11T08:07:16.081Z,5.20
2023-08-11T08:09:44.420Z,4.10
2023-08-11T08:12:12.636Z,4.00
2023-08-11T08:14:40.671Z,4.90
2023-08-11T08:17:09.017Z,4.70
2023-08-11T08:19:37.362Z,5.50
2023-08-11T08:22:05.882Z,3.30
2023-08-11T08:24:34.014Z,5.10
2023-08-11T08:27:02.094Z,4.30
2023-08-11T08:29:30.365Z,3.30
2023-08-11T08:31:58.358Z,3.10
2023-08-11T08:34:26.508Z,4.40
2023-08-11T08:36:54.601Z,6.40
2023-08-11T08:39:22.648Z,6.10
2023-08-11T08:41:52.380Z,2.90
2023-08-11T08:44:21.389Z,4.00
2023-08-11T08:46:52.421Z,3.20
2023-08-11T08:49:26.947Z,3.20
2023-08-11T08:51:55.836Z,5.20
2023-08-11T08:54:25.177Z,5.30
2023-08-11T08:56:53.731Z,3.50
2023-08-11T08:59:23.095Z,4.70
2023-08-11T09:01:51.843Z,3.60
2023-08-11T09:04:22.187Z,4.90
2023-08-11T09:06:55.380Z,4.80
2023-08-11T09:09:28.753Z,3.10
2023-08-11T09:11:57.641Z,4.50
2023-08-11T09:14:25.752Z,4.60
2023-08-11T09:16:54.973Z,4.30
2023-08-11T09:19:24.921Z,3.80
2023-08-11T09:21:53.786Z,3.00
2023-08-11T09:24:24.296Z,3.80
2023-08-11T09:26:52.847Z,4.00
2023-08-11T09:29:22.036Z,3.90
2023-08-11T09:31:55.154Z,3.20
2023-08-11T09:34:23.978Z,4.50
2023-08-11T09:36:52.517Z,4.70
2023-08-11T09:39:21.941Z,2.80
2023-08-11T09:41:50.485Z,4.10
2023-08-11T09:44:20.611Z,3.80
2023-08-11T09:46:51.193Z,4.10
2023-08-11T09:49:20.068Z,4.70
2023-08-11T09:51:50.391Z,4.20
2023-08-11T09:54:19.775Z,3.50
2023-08-11T09:56:49.528Z,3.60
2023-08-11T09:59:21.219Z,4.10
2023-08-11T10:01:53.341Z,5.40
2023-08-11T10:04:26.887Z,4.90
2023-08-11T10:06:59.600Z,9.00
2023-08-11T10:09:30.092Z,8.00
2023-08-11T10:11:59.734Z,9.10
2023-08-11T10:14:29.363Z,9.20
2023-08-11T10:17:00.479Z,6.30
2023-08-11T10:19:31.928Z,5.00
2023-08-11T10:22:03.954Z,7.00
2023-08-11T10:24:38.572Z,4.80
2023-08-11T10:27:09.280Z,4.50
2023-08-11T10:29:43.846Z,4.10
2023-08-11T10:32:30.015Z,3.50
2023-08-11T10:34:58.911Z,4.40
2023-08-11T10:37:32.635Z,4.10
2023-08-11T10:40:10.733Z,5.00
2023-08-11T10:42:42.341Z,6.20
2023-08-11T10:45:14.614Z,3.30
2023-08-11T10:47:54.553Z,4.30
2023-08-11T10:50:32.188Z,4.80
2023-08-11T10:53:30.157Z,4.00
2023-08-11T10:56:06.530Z,3.40
2023-08-11T10:58:38.899Z,3.70
2023-08-11T11:01:07.573Z,3.30
2023-08-11T11:03:42.769Z,4.20
2023-08-11T11:06:11.313Z,4.50
2023-08-11T11:08:45.427Z,3.00
2023-08-11T11:11:14.815Z,4.40
2023-08-11T11:13:45.522Z,4.40
2023-08-11T11:16:15.757Z,5.10
2023-08-11T11:18:48.566Z,3.10
2023-08-11T11:21:31.052Z,5.40
2023-08-11T11:24:01.010Z,4.60
2023-08-11T11:26:32.740Z,4.60
2023-08-11T11:29:06.273Z,4.90
2023-08-11T11:31:38.694Z,4.10
2023-08-11T11:34:08.548Z,4.70
2023-08-11T11:36:38.470Z,4.10
2023-08-11T11:39:07.395Z,4.00
2023-08-11T11:41:35.903Z,3.60
2023-08-11T11:44:05.811Z,5.60
2023-08-11T11:46:36.305Z,2.90
2023-08-11T11:49:15.719Z,4.40
2023-08-11T11:51:53.675Z,4.60
2023-08-11T11:54:22.665Z,3.30
2023-08-11T11:57:03.386Z,2.80
2023-08-11T11:59:35.331Z,4.20
2023-08-11T12:02:07.334Z,3.40
2023-08-11T12:04:40.511Z,4.50
2023-08-11T12:07:35.142Z,3.40
2023-08-11T12:10:07.422Z,4.10
2023-08-11T12:12:36.488Z,4.30
2023-08-11T12:15:07.024Z,3.70
2023-08-11T12:17:36.598Z,4.30
2023-08-11T12:20:08.251Z,7.20
2023-08-11T12:22:36.568Z,5.90
2023-08-11T12:25:05.360Z,4.50
2023-08-11T12:27:36.709Z,4.80
2023-08-11T12:30:05.876Z,4.60
2023-08-11T12:32:33.985Z,4.20
2023-08-11T12:35:02.150Z,4.80
2023-08-11T12:37:30.185Z,5.80
2023-08-11T12:39:58.189Z,4.70
2023-08-11T12:42:26.186Z,4.70
2023-08-11T12:44:54.154Z,2.90
2023-08-11T12:47:23.230Z,3.40
2023-08-11T12:49:51.484Z,3.90
2023-08-11T12:52:19.452Z,4.30
2023-08-11T12:54:47.473Z,3.50
2023-08-11T12:57:15.706Z,3.90
2023-08-11T12:59:43.690Z,7.90
2023-08-11T13:02:12.329Z,4.10
2023-08-11T13:04:40.740Z,3.20
2023-08-11T13:07:09.011Z,4.10
2023-08-11T13:09:37.134Z,3.80
2023-08-11T13:12:07.477Z,6.40
2023-08-11T13:14:35.790Z,5.10
2023-08-11T13:17:03.952Z,4.30
2023-08-11T13:19:33.256Z,2.90
2023-08-11T13:22:07.941Z,4.40
2023-08-11T13:24:36.873Z,2.50
2023-08-11T13:27:06.089Z,5.40
2023-08-11T13:29:34.621Z,4.70
2023-08-11T13:32:03.412Z,4.40
2023-08-11T13:34:32.273Z,5.50
2023-08-11T13:37:01.339Z,5.10
2023-08-11T13:39:32.124Z,4.50
2023-08-11T13:42:07.815Z,4.10
2023-08-11T13:44:36.787Z,3.70
2023-08-11T13:47:05.769Z,4.00
2023-08-11T13:49:34.849Z,3.70
2023-08-11T13:52:08.475Z,3.30
2023-08-11T13:54:37.573Z,2.70
2023-08-11T13:57:07.322Z,5.50
2023-08-11T13:59:35.868Z,4.00
2023-08-11T14:02:04.238Z,3.10
2023-08-11T14:04:32.649Z,4.30
2023-08-11T14:07:18.331Z,3.90
2023-08-11T14:09:51.290Z,3.70
2023-08-11T14:12:22.874Z,3.90
2023-08-11T14:14:51.325Z,5.10
2023-08-11T14:17:19.658Z,2.90
2023-08-11T14:19:48.081Z,4.50
2023-08-11T14:22:16.290Z,4.60
2023-08-11T14:24:46.471Z,13.40
2023-08-11T14:27:14.857Z,4.30
2023-08-11T14:29:43.240Z,4.90
2023-08-11T14:32:24.555Z,3.60
2023-08-11T14:34:54.313Z,4.10
2023-08-11T14:37:22.697Z,5.20
2023-08-11T14:39:51.080Z,5.40
2023-08-11T14:42:19.272Z,3.40
2023-08-11T14:44:47.728Z,10.70
2023-08-11T14:47:16.076Z,5.50
2023-08-11T14:49:45.400Z,5.40
2023-08-11T14:52:14.762Z,3.50
2023-08-11T14:54:43.640Z,2.90
2023-08-11T14:57:14.444Z,3.60
2023-08-11T14:59:42.897Z,4.60
2023-08-11T15:02:12.033Z,4.20
2023-08-11T15:04:40.364Z,3.90
2023-08-11T15:07:09.010Z,4.30
2023-08-11T15:09:37.250Z,4.60
2023-08-11T15:12:08.115Z,4.20
2023-08-11T15:14:36.553Z,5.00
2023-08-11T15:17:04.801Z,3.60
2023-08-11T15:19:33.213Z,4.00
2023-08-11T15:22:01.390Z,4.30
2023-08-11T15:24:29.447Z,3.40
2023-08-11T15:26:57.522Z,4.30
2023-08-11T15:29:25.801Z,6.60
2023-08-11T15:31:54.881Z,9.50
2023-08-11T15:34:23.268Z,9.60
2023-08-11T15:36:51.444Z,7.00
2023-08-11T15:39:20.023Z,7.30
2023-08-11T15:41:48.193Z,7.60
2023-08-11T15:44:16.306Z,6.00
2023-08-11T15:46:44.614Z,4.30
2023-08-11T15:49:12.712Z,5.50
2023-08-11T15:51:40.893Z,4.10
2023-08-11T15:54:09.262Z,5.00
2023-08-11T15:56:37.456Z,3.80
2023-08-11T15:59:07.188Z,4.60
2023-08-11T16:01:36.000Z,5.50
2023-08-11T16:04:05.322Z,3.80
2023-08-11T16:06:33.725Z,5.30
2023-08-11T16:09:02.194Z,4.10
2023-08-11T16:11:30.468Z,5.00
2023-08-11T16:13:58.636Z,4.40
2023-08-11T16:16:27.162Z,4.70
2023-08-11T16:18:56.957Z,4.60
2023-08-11T16:21:27.708Z,3.20
2023-08-11T16:23:58.233Z,4.20
2023-08-11T16:26:26.673Z,4.50
2023-08-11T16:28:55.365Z,2.90
2023-08-11T16:31:24.360Z,4.70
2023-08-11T16:33:53.034Z,3.10
2023-08-11T16:36:25.100Z,3.20
2023-08-11T16:38:53.991Z,4.50
2023-08-11T16:41:24.165Z,5.90
2023-08-11T16:43:53.371Z,3.40
2023-08-11T16:46:23.843Z,4.00
2023-08-11T16:48:52.316Z,4.80
2023-08-11T16:51:23.174Z,3.90
2023-08-11T16:53:54.910Z,4.40
2023-08-11T16:56:23.494Z,4.90
2023-08-11T16:58:52.483Z,4.20
2023-08-11T17:01:21.693Z,3.90
2023-08-11T17:04:05.457Z,5.20
2023-08-11T17:06:33.692Z,5.30
2023-08-11T17:09:02.080Z,4.80
2023-08-11T17:11:30.346Z,4.50
2023-08-11T17:13:58.718Z,3.70
2023-08-11T17:16:27.065Z,3.50
2023-08-11T17:18:55.580Z,3.80
2023-08-11T17:21:23.695Z,4.60
2023-08-11T17:23:57.266Z,3.50
2023-08-11T17:26:25.556Z,4.60
2023-08-11T17:28:55.727Z,3.20
2023-08-11T17:31:24.753Z,3.40
2023-08-11T17:33:53.581Z,4.00
2023-08-11T17:36:27.021Z,4.80
2023-08-11T17:38:55.598Z,3.80
2023-08-11T17:41:27.948Z,3.90
2023-08-11T17:43:57.987Z,3.70
2023-08-11T17:46:27.345Z,4.20
2023-08-11T17:48:55.779Z,3.50
2023-08-11T17:51:25.278Z,5.00
2023-08-11T17:54:08.131Z,3.30
2023-08-11T17:56:38.585Z,3.90
2023-08-11T17:59:07.041Z,3.80
2023-08-11T18:01:35.315Z,6.30
2023-08-11T18:04:06.348Z,3.90
2023-08-11T18:06:37.004Z,3.50
2023-08-11T18:09:05.571Z,6.50
2023-08-11T18:11:35.143Z,3.90
2023-08-11T18:14:04.450Z,4.80
2023-08-11T18:16:34.100Z,5.50
2023-08-11T18:19:02.479Z,4.70
2023-08-11T18:21:31.728Z,4.50
2023-08-11T18:24:02.604Z,4.90
2023-08-11T18:26:36.218Z,3.80
2023-08-11T18:29:05.666Z,5.30
2023-08-11T18:31:33.890Z,5.20
2023-08-11T18:34:03.336Z,4.90
2023-08-11T18:36:33.397Z,4.70
2023-08-11T18:39:02.189Z,3.80
2023-08-11T18:41:31.452Z,4.30
2023-08-11T18:44:05.633Z,5.00
2023-08-11T18:46:37.027Z,4.10
2023-08-11T18:49:07.688Z,3.90
2023-08-11T18:51:41.500Z,4.50
2023-08-11T18:54:11.110Z,4.00
2023-08-11T18:56:43.574Z,4.60
2023-08-11T18:59:12.748Z,4.20
2023-08-11T19:01:42.043Z,4.00
2023-08-11T19:04:12.982Z,5.50
2023-08-11T19:06:41.852Z,5.60
2023-08-11T19:09:11.542Z,3.50
2023-08-11T19:11:43.550Z,6.20
2023-08-11T19:14:13.846Z,5.70
2023-08-11T19:16:52.295Z,4.70
2023-08-11T19:19:20.827Z,4.70
2023-08-11T19:21:49.198Z,3.80
2023-08-11T19:24:18.052Z,5.30
2023-08-11T19:26:47.497Z,5.90
2023-08-11T19:29:15.940Z,5.70
2023-08-11T19:31:44.475Z,4.90
2023-08-11T19:34:12.773Z,4.40
2023-08-11T19:36:44.694Z,6.10
2023-08-11T19:39:16.495Z,5.10
2023-08-11T19:41:45.846Z,5.10
2023-08-11T19:44:15.047Z,5.30
2023-08-11T19:46:43.838Z,4.00
2023-08-11T19:49:13.955Z,5.20
2023-08-11T19:51:45.585Z,3.90
2023-08-11T19:54:14.490Z,6.20
2023-08-11T19:56:44.129Z,5.00
2023-08-11T19:59:12.474Z,3.60
2023-08-11T20:01:42.108Z,5.50
2023-08-11T20:04:10.573Z,6.90
2023-08-11T20:06:43.796Z,4.80
2023-08-11T20:09:13.573Z,3.30
2023-08-11T20:11:42.150Z,4.00
2023-08-11T20:14:11.694Z,4.70
2023-08-11T20:16:42.210Z,5.10
2023-08-11T20:19:11.691Z,4.40
2023-08-11T20:21:40.497Z,5.40
2023-08-11T20:24:09.384Z,5.90
2023-08-11T20:26:37.729Z,4.60
2023-08-11T20:29:06.936Z,3.90
2023-08-11T20:31:35.344Z,3.10
2023-08-11T20:34:04.015Z,5.20
2023-08-11T20:36:32.296Z,3.40
2023-08-11T20:39:00.685Z,3.50
2023-08-11T20:41:29.053Z,3.80
2023-08-11T20:43:58.538Z,3.70
2023-08-11T20:46:26.928Z,5.10
2023-08-11T20:48:55.304Z,5.80
2023-08-11T20:51:23.360Z,5.20
2023-08-11T20:53:51.542Z,3.10
2023-08-11T20:56:19.710Z,4.90
2023-08-11T20:58:48.345Z,5.40
2023-08-11T21:01:16.611Z,3.80
2023-08-11T21:03:44.797Z,4.00
2023-08-11T21:06:13.220Z,5.60
2023-08-11T21:08:46.589Z,4.90
2023-08-11T21:11:15.812Z,4.50
2023-08-11T21:13:44.132Z,5.80
2023-08-11T21:16:12.209Z,4.60
2023-08-11T21:18:40.335Z,4.50
2023-08-11T21:21:08.502Z,4.20
2023-08-11T21:23:37.807Z,5.80
2023-08-11T21:26:06.693Z,3.70
2023-08-11T21:28:37.166Z,5.20
2023-08-11T21:31:17.444Z,4.00
2023-08-11T21:34:08.311Z,6.10
2023-08-11T21:36:38.224Z,5.40
2023-08-11T21:39:09.035Z,6.90
2023-08-11T21:41:38.124Z,4.20
2023-08-11T21:44:07.008Z,6.00
2023-08-11T21:46:36.039Z,5.50
2023-08-11T21:49:04.857Z,5.20
2023-08-11T21:51:36.753Z,4.50
2023-08-11T21:54:05.335Z,5.40
2023-08-11T21:56:37.251Z,5.90
2023-08-11T21:59:05.600Z,6.40
2023-08-11T22:01:33.994Z,6.00
2023-08-11T22:04:02.742Z,7.60
2023-08-11T22:06:31.846Z,8.40
2023-08-11T22:09:00.013Z,7.80
2023-08-11T22:11:36.510Z,9.60
2023-08-11T22:14:06.477Z,8.70
2023-08-11T22:16:34.741Z,8.60
2023-08-11T22:19:03.154Z,8.30
2023-08-11T22:21:31.317Z,10.10
2023-08-11T22:23:59.492Z,9.90
2023-08-11T22:26:27.569Z,9.40
2023-08-11T22:28:55.557Z,9.20
2023-08-11T22:31:24.116Z,9.30
2023-08-11T22:33:52.137Z,7.60
2023-08-11T22:36:20.484Z,7.60
2023-08-11T22:38:48.636Z,8.20
2023-08-11T22:41:17.156Z,7.50
2023-08-11T22:43:45.280Z,6.90
2023-08-11T22:46:13.394Z,6.60
2023-08-11T22:48:41.669Z,8.00
2023-08-11T22:51:10.007Z,7.50
2023-08-11T22:53:38.206Z,8.10
2023-08-11T22:56:06.297Z,9.80
2023-08-11T22:58:34.362Z,6.60
2023-08-11T23:01:02.393Z,8.20
2023-08-11T23:03:30.685Z,7.80
2023-08-11T23:05:58.882Z,9.40
2023-08-11T23:08:27.017Z,7.80
2023-08-11T23:10:55.082Z,8.30
2023-08-11T23:13:23.172Z,10.60
2023-08-11T23:15:51.270Z,14.70
2023-08-11T23:18:19.406Z,14.10
2023-08-11T23:20:47.681Z,10.30
2023-08-11T23:23:15.842Z,9.80
2023-08-11T23:25:44.374Z,10.40
2023-08-11T23:28:12.502Z,11.20
2023-08-11T23:30:40.773Z,11.10
2023-08-11T23:33:08.928Z,8.50
2023-08-11T23:35:38.960Z,9.60
2023-08-11T23:38:07.263Z,9.10
2023-08-11T23:40:35.530Z,7.30
2023-08-11T23:43:03.788Z,10.20
2023-08-11T23:45:32.306Z,10.80
2023-08-11T23:48:00.632Z,12.10
2023-08-11T23:50:28.921Z,14.40
2023-08-11T23:52:57.107Z,16.40
2023-08-11T23:55:28.325Z,21.90
2023-08-11T23:57:56.912Z,30.50
